createdAt,value
2018-10-19T00:00:37.776Z,89.43
2018-10-19T00:01:48.094Z,89.72
2018-10-19T00:02:58.256Z,89.43
2018-10-19T00:04:08.630Z,89.34
2018-10-19T00:05:18.951Z,89.34
2018-10-19T00:06:29.663Z,89.43
2018-10-19T00:07:39.479Z,89.53
2018-10-19T00:08:49.014Z,89.34
2018-10-19T00:09:58.990Z,89.43
2018-10-19T00:11:09.150Z,89.34
2018-10-19T00:12:19.694Z,89.43
2018-10-19T00:13:29.845Z,89.34
2018-10-19T00:14:39.940Z,89.34
2018-10-19T00:15:50.024Z,89.53
2018-10-19T00:17:00.159Z,89.53
2018-10-19T00:18:10.611Z,89.53
2018-10-19T00:19:20.447Z,89.15
2018-10-19T00:20:30.280Z,89.24
2018-10-19T00:21:40.149Z,89.24
2018-10-19T00:22:50.273Z,89.53
2018-10-19T00:23:59.837Z,89.24
2018-10-19T00:25:09.668Z,89.24
2018-10-19T00:26:19.742Z,89.34
2018-10-19T00:27:29.861Z,89.34
2018-10-19T00:28:39.987Z,89.15
2018-10-19T00:29:50.126Z,89.53
2018-10-19T00:31:00.394Z,89.72
2018-10-19T00:32:10.463Z,89.53
2018-10-19T00:33:20.542Z,89.62
2018-10-19T00:34:30.593Z,89.43
2018-10-19T00:35:40.408Z,89.34
2018-10-19T00:36:50.683Z,89.43
2018-10-19T00:38:01.209Z,89.53
2018-10-19T00:39:11.438Z,89.43
2018-10-19T00:40:21.843Z,89.15
2018-10-19T00:41:32.027Z,88.95
2018-10-19T00:42:41.850Z,89.24
2018-10-19T00:43:51.714Z,88.95
2018-10-19T00:45:01.641Z,89.24
2018-10-19T00:46:12.151Z,89.53
2018-10-19T00:47:22.279Z,89.43
2018-10-19T00:48:32.099Z,89.62
2018-10-19T00:49:41.922Z,89.43
2018-10-19T00:50:52.060Z,89.72
2018-10-19T00:52:02.303Z,89.62
2018-10-19T00:53:12.326Z,89.53
2018-10-19T00:54:22.351Z,89.62
2018-10-19T00:55:32.451Z,89.05
2018-10-19T00:56:42.555Z,89.24
2018-10-19T00:57:52.352Z,89.15
2018-10-19T00:59:02.573Z,89.15
2018-10-19T01:00:13.045Z,89.1
2018-10-19T01:01:23.172Z,89.29
2018-10-19T01:02:33.094Z,89.39
2018-10-19T01:03:42.931Z,89.39
2018-10-19T01:04:53.026Z,89.39
2018-10-19T01:06:03.041Z,89.48
2018-10-19T01:07:13.122Z,89.01
2018-10-19T01:08:23.238Z,89.39
2018-10-19T01:09:33.056Z,89.87
2018-10-19T01:10:42.896Z,89.2
2018-10-19T01:11:52.975Z,89.39
2018-10-19T01:13:03.712Z,89.48
2018-10-19T01:14:13.785Z,89.1
2018-10-19T01:15:23.886Z,89.58
2018-10-19T01:16:33.999Z,89.39
2018-10-19T01:17:44.083Z,89.48
2018-10-19T01:18:54.210Z,89.48
2018-10-19T01:20:04.294Z,89.1
2018-10-19T01:21:14.694Z,89.48
2018-10-19T01:22:24.812Z,89.48
2018-10-19T01:23:34.879Z,89.58
2018-10-19T01:24:44.947Z,89.67
2018-10-19T01:25:55.020Z,89.48
2018-10-19T01:27:05.183Z,89.48
2018-10-19T01:28:15.348Z,89.39
2018-10-19T01:29:25.483Z,89.39
2018-10-19T01:30:35.582Z,89.67
2018-10-19T01:31:45.712Z,89.1
2018-10-19T01:32:55.829Z,89.01
2018-10-19T01:34:06.599Z,89.58
2018-10-19T01:35:16.894Z,89.39
2018-10-19T01:36:26.715Z,88.91
2018-10-19T01:37:36.585Z,89.1
2018-10-19T01:38:46.697Z,89.1
2018-10-19T01:39:56.620Z,89.2
2018-10-19T01:41:06.864Z,89.87
2018-10-19T01:42:17.128Z,89.29
2018-10-19T01:43:27.209Z,89.48
2018-10-19T01:44:37.285Z,89.48
2018-10-19T01:45:47.376Z,89.01
2018-10-19T01:46:57.539Z,89.29
2018-10-19T01:48:08.891Z,89.29
2018-10-19T01:49:19.211Z,89.2
2018-10-19T01:50:29.491Z,89.29
2018-10-19T01:51:39.571Z,88.91
2018-10-19T01:52:49.419Z,89.48
2018-10-19T01:53:59.269Z,89.01
2018-10-19T01:55:09.554Z,89.67
2018-10-19T01:56:19.092Z,89.29
2018-10-19T01:57:29.155Z,89.39
2018-10-19T01:58:38.970Z,89.01
2018-10-19T01:59:49.048Z,89.01
2018-10-19T02:00:58.851Z,89.39
2018-10-19T02:02:09.022Z,89.67
2018-10-19T02:03:19.296Z,89.29
2018-10-19T02:04:29.415Z,89.39
2018-10-19T02:05:39.218Z,89.1
2018-10-19T02:06:49.040Z,89.2
2018-10-19T02:07:59.118Z,89.67
2018-10-19T02:09:09.301Z,89.1
2018-10-19T02:10:19.619Z,89.1
2018-10-19T02:11:29.698Z,88.96
2018-10-19T02:12:39.782Z,89.39
2018-10-19T02:13:49.854Z,89.39
2018-10-19T02:14:59.794Z,89.67
2018-10-19T02:16:10.210Z,88.91
2018-10-19T02:17:20.033Z,89.25
2018-10-19T02:18:29.851Z,89.15
2018-10-19T02:19:39.938Z,89.48
2018-10-19T02:20:50.027Z,89.39
2018-10-19T02:22:00.360Z,89.1
2018-10-19T02:23:10.268Z,89.87
2018-10-19T02:24:20.765Z,89.1
2018-10-19T02:25:30.566Z,89.01
2018-10-19T02:26:40.380Z,88.87
2018-10-19T02:27:50.435Z,89.87
2018-10-19T02:29:02.336Z,89.39
2018-10-19T02:30:12.664Z,89.06
2018-10-19T02:31:22.492Z,89.1
2018-10-19T02:32:32.564Z,89.1
2018-10-19T02:33:42.362Z,89.1
2018-10-19T02:34:51.951Z,89.39
2018-10-19T02:36:02.389Z,89.2
2018-10-19T02:37:12.740Z,89.2
2018-10-19T02:38:22.810Z,89.2
2018-10-19T02:39:32.887Z,89.29
2018-10-19T02:40:42.699Z,89.2
2018-10-19T02:41:52.765Z,89.2
2018-10-19T02:43:02.710Z,89.39
2018-10-19T02:44:12.774Z,89.39
2018-10-19T02:45:22.635Z,89.29
2018-10-19T02:46:32.710Z,89.39
2018-10-19T02:47:42.811Z,89.39
2018-10-19T02:48:52.931Z,89.48
2018-10-19T02:50:03.010Z,89.1
2018-10-19T02:51:13.329Z,89.48
2018-10-19T02:52:23.914Z,89.39
2018-10-19T02:53:34.236Z,89.53
2018-10-19T02:54:44.382Z,89.58
2018-10-19T02:55:54.190Z,89.58
2018-10-19T02:57:04.416Z,89.39
2018-10-19T02:58:15.007Z,89.2
2018-10-19T02:59:25.096Z,89.58
2018-10-19T03:00:35.233Z,89.67
2018-10-19T03:01:45.303Z,89.39
2018-10-19T03:02:55.501Z,89.39
2018-10-19T03:34:40.103Z,83.25
2018-10-19T03:35:50.188Z,83.92
2018-10-19T03:37:00.313Z,84.01
2018-10-19T03:38:10.397Z,85.25
2018-10-19T03:39:20.393Z,85.93
2018-10-19T03:40:30.657Z,87.16
2018-10-19T03:41:40.262Z,86.88
2018-10-19T03:42:50.325Z,87.45
2018-10-19T03:44:01.346Z,87.78
2018-10-19T03:45:11.596Z,88.16
2018-10-19T03:46:21.758Z,88.07
2018-10-19T03:47:31.859Z,88.45
2018-10-19T03:48:41.678Z,88.2
2018-10-19T03:49:51.767Z,88.4
2018-10-19T03:51:02.339Z,88.78
2018-10-19T03:52:12.694Z,88.78
2018-10-19T03:53:22.500Z,88.68
2018-10-19T03:54:32.573Z,88.59
2018-10-19T03:55:42.667Z,88.87
2018-10-19T03:56:52.476Z,89.11
2018-10-19T03:58:05.373Z,88.92
2018-10-19T03:59:15.682Z,88.92
2018-10-19T04:00:25.901Z,89.11
2018-10-19T04:01:35.988Z,89.11
2018-10-19T04:02:46.068Z,89.11
2018-10-19T04:03:56.166Z,89.01
2018-10-19T04:05:06.410Z,89.11
2018-10-19T04:06:17.176Z,89.2
2018-10-19T04:07:27.040Z,89.3
2018-10-19T04:08:37.117Z,88.87
2018-10-19T04:09:46.995Z,88.96
2018-10-19T04:10:57.112Z,89.06
2018-10-19T04:12:07.403Z,89.34
2018-10-19T04:13:17.507Z,89.34
2018-10-19T04:14:27.310Z,89.44
2018-10-19T04:15:37.188Z,89.53
2018-10-19T04:16:47.269Z,89.53
2018-10-19T04:17:57.352Z,89.44
2018-10-19T04:19:07.436Z,89.53
2018-10-19T04:20:17.255Z,89.15
2018-10-19T04:21:27.378Z,89.53
2018-10-19T04:22:37.691Z,89.25
2018-10-19T04:23:47.779Z,89.34
2018-10-19T04:24:57.848Z,89.34
2018-10-19T04:26:07.981Z,89.39
2018-10-19T04:27:18.289Z,89.34
2018-10-19T04:28:28.687Z,89.34
2018-10-19T04:29:38.514Z,89.44
2018-10-19T04:30:48.069Z,89.53
2018-10-19T04:31:58.134Z,89.34
2018-10-19T04:33:08.484Z,89.44
2018-10-19T04:34:19.115Z,89.3
2018-10-19T04:35:28.679Z,89.3
2018-10-19T04:36:38.810Z,89.39
2018-10-19T04:37:48.896Z,89.3
2018-10-19T04:38:59.095Z,89.3
2018-10-19T04:40:10.133Z,89.3
2018-10-19T04:41:20.196Z,89.49
2018-10-19T04:42:30.690Z,89.39
2018-10-19T04:43:40.490Z,89.44
2018-10-19T04:44:50.767Z,89.39
2018-10-19T04:46:02.854Z,89.39
2018-10-19T04:47:13.295Z,89.3
2018-10-19T04:48:23.504Z,89.39
2018-10-19T04:49:33.310Z,89.39
2018-10-19T04:50:43.381Z,89.39
2018-10-19T04:51:53.436Z,89.3
2018-10-19T04:53:03.627Z,89.49
2018-10-19T04:54:13.772Z,89.39
2018-10-19T04:55:23.872Z,89.3
2018-10-19T04:56:34.054Z,89.3
2018-10-19T04:57:43.869Z,89.49
2018-10-19T04:58:54.032Z,89.3
2018-10-19T05:00:04.232Z,89.49
2018-10-19T05:01:14.295Z,89.39
2018-10-19T05:02:24.469Z,89.3
2018-10-19T05:03:34.741Z,89.3
2018-10-19T05:04:45.095Z,89.3
2018-10-19T05:05:55.707Z,89.3
2018-10-19T05:07:07.045Z,89.3
2018-10-19T05:08:17.157Z,89.3
2018-10-19T05:09:27.371Z,89.3
2018-10-19T05:10:37.177Z,89.3
2018-10-19T05:11:47.257Z,89.39
2018-10-19T05:12:57.533Z,89.39
2018-10-19T05:14:07.809Z,88.92
2018-10-19T05:15:18.316Z,88.92
2018-10-19T05:16:28.130Z,89.3
2018-10-19T05:17:38.222Z,89.01
2018-10-19T05:18:48.325Z,88.92
2018-10-19T05:19:58.244Z,89.11
2018-10-19T05:21:09.741Z,89.11
2018-10-19T05:22:19.568Z,89.11
2018-10-19T05:23:29.384Z,89.2
2018-10-19T05:24:39.556Z,89.2
2018-10-19T05:25:50.408Z,89.11
2018-10-19T05:27:00.330Z,89.3
2018-10-19T05:28:10.661Z,89.3
2018-10-19T05:29:20.697Z,89.11
2018-10-19T05:30:30.259Z,89.06
2018-10-19T05:31:40.377Z,89.2
2018-10-19T05:32:50.218Z,89.2
2018-10-19T05:34:00.421Z,89.11
2018-10-19T05:35:10.674Z,89.01
2018-10-19T05:36:21.254Z,89.15
2018-10-19T05:37:31.425Z,88.92
2018-10-19T05:38:41.230Z,88.77
2018-10-19T05:39:51.309Z,88.77
2018-10-19T05:41:01.509Z,88.68
2018-10-19T05:42:11.988Z,88.58
2018-10-19T05:43:22.392Z,88.68
2018-10-19T05:44:32.097Z,88.87
2018-10-19T05:45:41.913Z,88.58
2018-10-19T05:46:52.051Z,88.39
2018-10-19T05:48:02.871Z,88.77
2018-10-19T05:49:12.959Z,88.58
2018-10-19T05:50:23.055Z,88.48
2018-10-19T05:51:33.136Z,88.96
2018-10-19T05:52:43.184Z,88.29
2018-10-19T05:53:53.269Z,88.68
2018-10-19T05:55:03.542Z,88.58
2018-10-19T05:56:13.932Z,88.29
2018-10-19T05:57:24.250Z,88.53
2018-10-19T05:58:34.314Z,88.53
2018-10-19T05:59:44.136Z,88.43
2018-10-19T06:00:54.214Z,88.34
2018-10-19T06:02:04.867Z,88.05
2018-10-19T06:03:15.621Z,88.43
2018-10-19T06:04:25.715Z,88.34
2018-10-19T06:05:35.521Z,88.34
2018-10-19T06:06:45.624Z,88.24
2018-10-19T06:07:55.914Z,88.43
2018-10-19T06:09:05.974Z,88.34
2018-10-19T06:10:16.048Z,88.43
2018-10-19T06:11:26.128Z,88.05
2018-10-19T06:12:35.747Z,87.86
2018-10-19T06:13:46.011Z,88.15
2018-10-19T06:14:55.995Z,88.15
2018-10-19T06:16:06.288Z,88.15
2018-10-19T06:17:16.429Z,88.34
2018-10-19T06:18:26.533Z,88.34
2018-10-19T06:19:36.601Z,88.09
2018-10-19T06:20:46.410Z,88.29
2018-10-19T06:21:56.267Z,88.19
2018-10-19T06:23:06.485Z,88.38
2018-10-19T06:24:17.144Z,88.48
2018-10-19T06:25:27.216Z,87.81
2018-10-19T06:26:37.438Z,87.71
2018-10-19T06:27:47.532Z,87.52
2018-10-19T06:28:57.704Z,88
2018-10-19T06:30:08.124Z,87.9
2018-10-19T06:31:17.954Z,87.9
2018-10-19T06:32:27.758Z,87.81
2018-10-19T06:33:37.910Z,88
2018-10-19T06:34:48.540Z,87.71
2018-10-19T06:35:58.718Z,87.85
2018-10-19T06:37:08.534Z,87.85
2018-10-19T06:38:19.044Z,88.04
2018-10-19T06:39:29.219Z,87.95
2018-10-19T06:40:39.379Z,87.85
2018-10-19T06:41:49.735Z,88.13
2018-10-19T06:42:59.834Z,87.95
2018-10-19T06:44:09.999Z,87.56
2018-10-19T06:45:20.608Z,87.76
2018-10-19T06:46:30.736Z,87.51
2018-10-19T06:47:41.197Z,87.61
2018-10-19T06:48:51.430Z,87.7
2018-10-19T06:50:01.551Z,87.61
2018-10-19T06:51:12.030Z,87.7
2018-10-19T06:52:21.842Z,87.51
2018-10-19T06:53:31.990Z,87.7
2018-10-19T06:54:42.108Z,87.8
2018-10-19T06:55:52.256Z,87.61
2018-10-19T06:57:02.119Z,87.8
2018-10-19T06:58:12.200Z,87.8
2018-10-19T06:59:22.484Z,88.09
2018-10-19T07:00:33.100Z,87.94
2018-10-19T07:01:43.182Z,87.37
2018-10-19T07:02:53.294Z,87.37
2018-10-19T07:04:03.093Z,87.65
2018-10-19T07:05:12.888Z,87.46
2018-10-19T07:06:23.240Z,87.46
2018-10-19T07:07:33.325Z,87.27
2018-10-19T07:08:43.403Z,87.46
2018-10-19T07:09:53.203Z,87.46
2018-10-19T07:11:06.596Z,87.27
2018-10-19T07:12:17.446Z,87.46
2018-10-19T07:13:27.628Z,87.27
2018-10-19T07:14:37.706Z,87.31
2018-10-19T07:15:47.910Z,87.46
2018-10-19T07:16:58.345Z,87.41
2018-10-19T07:18:10.885Z,87.88
2018-10-19T07:19:20.966Z,87.41
2018-10-19T07:20:30.791Z,87.88
2018-10-19T07:21:41.084Z,87.21
2018-10-19T07:22:51.934Z,87.12
2018-10-19T07:24:02.128Z,87.12
2018-10-19T07:25:11.957Z,87.31
2018-10-19T07:26:22.025Z,87.21
2018-10-19T07:27:32.118Z,87.21
2018-10-19T07:28:42.256Z,87.31
2018-10-19T07:29:52.536Z,86.93
2018-10-19T07:31:02.429Z,87.02
2018-10-19T07:32:12.558Z,87.12
2018-10-19T07:33:22.506Z,87.07
2018-10-19T07:34:32.617Z,87.26
2018-10-19T07:35:42.714Z,87.35
2018-10-19T07:36:52.792Z,87.07
2018-10-19T07:38:02.383Z,87.07
2018-10-19T07:39:12.965Z,87.26
2018-10-19T07:40:23.032Z,87.26
2018-10-19T07:41:32.865Z,87.07
2018-10-19T07:42:42.976Z,87.26
2018-10-19T07:43:52.849Z,87.07
2018-10-19T07:45:03.639Z,87.21
2018-10-19T07:46:13.744Z,87.11
2018-10-19T07:47:24.300Z,87.21
2018-10-19T07:48:35.228Z,87.4
2018-10-19T07:49:45.191Z,87.01
2018-10-19T07:50:54.756Z,87.3
2018-10-19T07:52:04.624Z,87.3
2018-10-19T07:53:14.997Z,87.11
2018-10-19T07:54:25.315Z,87.21
2018-10-19T07:55:35.376Z,87.15
2018-10-19T07:56:45.452Z,87.15
2018-10-19T07:57:55.526Z,87.25
2018-10-19T07:59:08.835Z,87.63
2018-10-19T08:00:19.734Z,86.77
2018-10-19T08:01:29.736Z,87.15
2018-10-19T08:02:39.811Z,87.05
2018-10-19T08:03:50.003Z,87.25
2018-10-19T08:05:00.147Z,87.15
2018-10-19T08:06:10.564Z,87.35
2018-10-19T08:07:20.892Z,87.15
2018-10-19T08:08:30.228Z,87.15
2018-10-19T08:09:40.368Z,87.15
2018-10-19T08:10:50.457Z,86.72
2018-10-19T08:12:00.699Z,87.19
2018-10-19T08:13:10.772Z,87.01
2018-10-19T08:14:20.839Z,87.29
2018-10-19T08:15:31.013Z,87.19
2018-10-19T08:16:40.832Z,86.81
2018-10-19T08:17:50.908Z,87.19
2018-10-19T08:19:00.744Z,86.72
2018-10-19T08:20:11.067Z,86.81
2018-10-19T08:21:21.491Z,86.62
2018-10-19T08:22:31.574Z,86.72
2018-10-19T08:23:41.648Z,86.72
2018-10-19T08:24:51.741Z,87.01
2018-10-19T08:26:01.640Z,87.01
2018-10-19T08:27:12.104Z,87.01
2018-10-19T08:28:22.344Z,86.95
2018-10-19T08:29:32.417Z,87.58
2018-10-19T08:30:42.520Z,87.05
2018-10-19T08:31:52.735Z,87.15
2018-10-19T08:33:03.988Z,87.05
2018-10-19T08:34:14.059Z,87.05
2018-10-19T08:35:24.178Z,87.05
2018-10-19T08:36:34.262Z,86.85
2018-10-19T08:37:44.327Z,87.15
2018-10-19T08:38:54.209Z,86.9
2018-10-19T08:40:04.045Z,87.19
2018-10-19T08:41:14.333Z,86.9
2018-10-19T08:42:24.849Z,86.9
2018-10-19T08:43:34.913Z,86.9
2018-10-19T08:44:45.052Z,86.8
2018-10-19T08:45:54.629Z,86.9
2018-10-19T08:47:04.864Z,87.09
2018-10-19T08:48:15.416Z,87.19
2018-10-19T08:49:25.508Z,87.23
2018-10-19T08:50:35.799Z,87.04
2018-10-19T08:51:45.907Z,86.56
2018-10-19T08:52:56.041Z,87.23
2018-10-19T08:54:06.483Z,86.85
2018-10-19T08:55:16.722Z,87.04
2018-10-19T08:56:26.851Z,86.85
2018-10-19T08:57:36.707Z,86.85
2018-10-19T08:58:46.943Z,86.85
2018-10-19T08:59:57.235Z,86.94
2018-10-19T09:01:07.731Z,86.94
2018-10-19T09:02:17.542Z,86.94
2018-10-19T09:03:27.672Z,87.18
2018-10-19T09:04:38.911Z,86.99
2018-10-19T09:05:48.988Z,87.08
2018-10-19T09:06:59.152Z,87.27
2018-10-19T09:08:10.145Z,87.27
2018-10-19T09:09:20.253Z,87.27
2018-10-19T09:10:30.381Z,87.27
2018-10-19T09:11:40.583Z,87.08
2018-10-19T09:12:51.197Z,87.08
2018-10-19T09:14:01.285Z,87.08
2018-10-19T09:15:11.566Z,87.08
2018-10-19T09:16:21.746Z,87.08
2018-10-19T09:17:31.564Z,87.08
2018-10-19T09:18:41.232Z,86.99
2018-10-19T09:19:51.176Z,86.99
2018-10-19T09:21:01.347Z,86.89
2018-10-19T09:22:12.033Z,87.27
2018-10-19T09:23:21.866Z,87.27
2018-10-19T09:24:31.684Z,86.74
2018-10-19T09:25:41.747Z,87.22
2018-10-19T09:26:51.831Z,86.83
2018-10-19T09:28:01.975Z,87.22
2018-10-19T09:29:12.663Z,86.65
2018-10-19T09:30:22.890Z,86.65
2018-10-19T09:31:33.085Z,87.03
2018-10-19T09:32:43.206Z,86.74
2018-10-19T09:33:52.496Z,86.83
2018-10-19T09:35:02.991Z,86.69
2018-10-19T09:36:13.992Z,86.88
2018-10-19T09:37:25.084Z,87.07
2018-10-19T09:38:35.156Z,86.88
2018-10-19T09:39:44.971Z,86.98
2018-10-19T09:40:55.353Z,86.98
2018-10-19T09:42:06.154Z,86.88
2018-10-19T09:43:16.968Z,87.07
2018-10-19T09:44:27.052Z,86.98
2018-10-19T09:45:37.186Z,87.26
2018-10-19T09:46:47.406Z,86.98
2018-10-19T09:47:58.113Z,86.59
2018-10-19T09:49:11.251Z,86.98
2018-10-19T09:50:21.639Z,86.98
2018-10-19T09:51:31.741Z,86.73
2018-10-19T09:52:41.873Z,87.07
2018-10-19T09:53:51.700Z,86.88
2018-10-19T09:55:01.621Z,86.92
2018-10-19T09:56:12.117Z,87.02
2018-10-19T09:57:22.744Z,86.88
2018-10-19T09:58:32.843Z,87.02
2018-10-19T09:59:42.939Z,87.21
2018-10-19T10:00:53.072Z,87.02
2018-10-19T10:02:04.177Z,87.21
2018-10-19T10:03:14.921Z,86.63
2018-10-19T10:04:25.302Z,87.02
2018-10-19T10:05:35.387Z,87.21
2018-10-19T10:06:45.483Z,87.02
2018-10-19T10:07:55.727Z,86.82
2018-10-19T10:09:06.806Z,86.73
2018-10-19T10:10:17.390Z,87.21
2018-10-19T10:11:27.524Z,87.12
2018-10-19T10:12:37.613Z,86.82
2018-10-19T10:13:47.698Z,86.92
2018-10-19T10:14:57.956Z,87.21
2018-10-19T10:16:08.929Z,87.02
2018-10-19T10:17:18.753Z,87.02
2018-10-19T10:18:28.844Z,87.12
2018-10-19T10:19:38.909Z,87.12
2018-10-19T10:20:49.041Z,87.06
2018-10-19T10:21:59.005Z,86.96
2018-10-19T10:23:09.408Z,86.87
2018-10-19T10:24:19.524Z,86.87
2018-10-19T10:25:29.359Z,86.87
2018-10-19T10:26:39.436Z,86.96
2018-10-19T10:27:49.571Z,86.96
2018-10-19T10:28:59.435Z,87.45
2018-10-19T10:30:11.025Z,87.35
2018-10-19T10:31:21.109Z,87.26
2018-10-19T10:32:31.039Z,87.45
2018-10-19T10:33:41.123Z,87.45
2018-10-19T10:34:51.246Z,86.68
2018-10-19T10:36:01.099Z,87.06
2018-10-19T10:37:11.357Z,86.58
2018-10-19T10:38:21.850Z,87.26
2018-10-19T10:39:31.458Z,87.26
2018-10-19T10:40:41.566Z,86.77
2018-10-19T10:41:51.665Z,86.96
2018-10-19T10:43:01.955Z,87.06
2018-10-19T10:44:12.400Z,87.06
2018-10-19T10:45:22.236Z,87.06
2018-10-19T10:46:32.323Z,87.35
2018-10-19T10:47:42.427Z,87.4
2018-10-19T10:48:52.500Z,87.01
2018-10-19T10:50:04.139Z,87.01
2018-10-19T10:51:13.992Z,86.82
2018-10-19T10:52:23.819Z,87.1
2018-10-19T10:53:33.904Z,87.45
2018-10-19T10:54:43.992Z,87.16
2018-10-19T10:55:54.073Z,87.1
2018-10-19T10:57:04.953Z,87.4
2018-10-19T10:58:15.014Z,87.2
2018-10-19T10:59:25.041Z,86.82
2018-10-19T11:00:35.119Z,87.3
2018-10-19T11:01:45.234Z,87.1
2018-10-19T11:02:55.103Z,87.1
2018-10-19T11:04:05.304Z,86.82
2018-10-19T11:05:15.842Z,87.2
2018-10-19T11:06:25.918Z,86.62
2018-10-19T11:07:36.585Z,86.86
2018-10-19T11:08:47.597Z,86.86
2018-10-19T11:09:57.460Z,86.76
2018-10-19T11:11:07.892Z,86.76
2018-10-19T11:12:17.971Z,86.66
2018-10-19T11:13:28.040Z,86.86
2018-10-19T11:14:38.107Z,86.86
2018-10-19T11:15:48.272Z,86.96
2018-10-19T11:16:58.420Z,87.05
2018-10-19T11:18:08.835Z,86.66
2018-10-19T11:19:19.083Z,86.66
2018-10-19T11:20:28.961Z,86.66
2018-10-19T11:21:39.086Z,86.86
2018-10-19T11:22:49.155Z,86.66
2018-10-19T11:23:59.343Z,86.66
2018-10-19T11:25:09.434Z,87.09
2018-10-19T11:26:19.565Z,86.71
2018-10-19T11:27:29.667Z,87.09
2018-10-19T11:28:39.783Z,86.9
2018-10-19T11:29:49.852Z,87.19
2018-10-19T11:30:59.814Z,86.71
2018-10-19T11:32:10.259Z,86.9
2018-10-19T11:33:20.172Z,86.71
2018-10-19T11:34:30.270Z,86.71
2018-10-19T11:35:40.091Z,86.8
2018-10-19T11:36:50.175Z,86.9
2018-10-19T11:38:00.507Z,87.29
2018-10-19T11:39:10.690Z,86.8
2018-10-19T11:40:20.614Z,86.8
2018-10-19T11:41:30.704Z,87
2018-10-19T11:42:40.247Z,86.94
2018-10-19T11:43:50.374Z,86.61
2018-10-19T11:45:01.744Z,86.94
2018-10-19T11:46:12.037Z,86.85
2018-10-19T11:47:22.352Z,86.94
2018-10-19T11:48:32.433Z,86.85
2018-10-19T11:49:42.986Z,87.04
2018-10-19T11:50:53.085Z,86.85
2018-10-19T11:52:02.839Z,87.13
2018-10-19T11:53:12.520Z,87.04
2018-10-19T11:54:22.620Z,87.23
2018-10-19T11:55:32.692Z,87.04
2018-10-19T11:56:42.809Z,86.85
2018-10-19T11:57:52.926Z,87.04
2018-10-19T11:59:06.212Z,86.94
2018-10-19T12:00:16.301Z,87.04
2018-10-19T12:01:26.469Z,87.18
2018-10-19T12:02:36.295Z,87.27
2018-10-19T12:03:46.603Z,86.99
2018-10-19T12:04:56.576Z,86.99
2018-10-19T12:06:06.662Z,86.99
2018-10-19T12:07:16.229Z,86.89
2018-10-19T12:08:26.299Z,86.6
2018-10-19T12:09:36.398Z,86.89
2018-10-19T12:10:46.824Z,87.27
2018-10-19T12:11:57.361Z,86.89
2018-10-19T12:13:07.308Z,86.79
2018-10-19T12:14:17.524Z,87.03
2018-10-19T12:15:27.609Z,87.23
2018-10-19T12:16:38.057Z,87.47
2018-10-19T12:17:48.440Z,87.81
2018-10-19T12:18:58.660Z,87.85
2018-10-19T12:20:09.161Z,87.71
2018-10-19T12:21:19.336Z,87.76
2018-10-19T12:22:29.842Z,87.57
2018-10-19T12:23:39.920Z,87.27
2018-10-19T12:24:49.794Z,86.83
2018-10-19T12:25:59.816Z,87.41
2018-10-19T12:27:10.443Z,87.51
2018-10-19T12:28:20.774Z,87.03
2018-10-19T12:29:30.856Z,87.71
2018-10-19T12:30:40.765Z,87.41
2018-10-19T12:31:50.601Z,87.51
2018-10-19T12:33:00.815Z,87.41
2018-10-19T12:34:11.161Z,87.71
2018-10-19T12:35:21.112Z,87.41
2018-10-19T12:36:31.507Z,87.71
2018-10-19T12:37:41.608Z,87.81
2018-10-19T12:38:51.722Z,87.41
2018-10-19T12:40:01.970Z,87.47
2018-10-19T12:41:12.292Z,88.15
2018-10-19T12:42:22.915Z,87.76
2018-10-19T12:43:33.012Z,87.76
2018-10-19T12:44:43.119Z,87.76
2018-10-19T12:45:53.199Z,87.66
2018-10-19T12:47:06.233Z,87.76
2018-10-19T12:48:16.428Z,87.85
2018-10-19T12:49:26.250Z,87.66
2018-10-19T12:50:35.542Z,87.18
2018-10-19T12:51:45.852Z,87.47
2018-10-19T12:52:55.937Z,87.37
2018-10-19T12:54:06.870Z,87.66
2018-10-19T12:55:17.102Z,87.37
2018-10-19T12:56:26.715Z,87.47
2018-10-19T12:57:36.996Z,87.47
2018-10-19T12:58:47.328Z,87.18
2018-10-19T12:59:57.208Z,87.37
2018-10-19T13:01:09.078Z,87.57
2018-10-19T13:02:19.532Z,87.18
2018-10-19T13:03:29.737Z,87.47
2018-10-19T13:04:40.263Z,87.76
2018-10-19T13:05:50.112Z,87.37
2018-10-19T13:07:00.381Z,87.32
2018-10-19T13:08:10.728Z,87.99
2018-10-19T13:09:21.020Z,87.76
2018-10-19T13:10:31.137Z,87.76
2018-10-19T13:11:41.288Z,87.95
2018-10-19T13:12:51.134Z,87.76
2018-10-19T13:14:01.400Z,87.61
2018-10-19T13:15:11.448Z,87.71
2018-10-19T13:16:22.109Z,87.99
2018-10-19T13:17:32.280Z,87.76
2018-10-19T13:18:42.398Z,87.81
2018-10-19T13:19:52.494Z,87.99
2018-10-19T13:21:02.813Z,87.9
2018-10-19T13:22:13.222Z,87.9
2018-10-19T13:23:23.115Z,87.71
2018-10-19T13:24:33.313Z,87.81
2018-10-19T13:25:43.400Z,87.71
2018-10-19T13:26:53.529Z,87.81
2018-10-19T13:28:03.980Z,87.9
2018-10-19T13:29:14.153Z,87.81
2018-10-19T13:30:24.269Z,87.9
2018-10-19T13:31:34.113Z,87.9
2018-10-19T13:32:44.234Z,88.05
2018-10-19T13:33:54.335Z,88.43
2018-10-19T13:35:04.188Z,87.85
2018-10-19T13:36:14.505Z,87.85
2018-10-19T13:37:24.687Z,88.43
2018-10-19T13:38:34.521Z,87.85
2018-10-19T13:39:44.639Z,88.73
2018-10-19T13:40:54.527Z,88.24
2018-10-19T13:42:04.842Z,88.63
2018-10-19T13:43:15.032Z,88.05
2018-10-19T13:44:25.132Z,88.2
2018-10-19T13:45:35.325Z,88.15
2018-10-19T13:46:45.581Z,88.34
2018-10-19T13:47:55.431Z,88.05
2018-10-19T13:49:08.176Z,88.1
2018-10-19T13:50:18.294Z,88.53
2018-10-19T13:51:28.409Z,88.15
2018-10-19T13:52:38.594Z,88.05
2018-10-19T13:53:48.696Z,88.1
2018-10-19T13:54:58.808Z,88.49
2018-10-19T13:56:08.931Z,88.78
2018-10-19T13:57:19.175Z,88.87
2018-10-19T13:58:28.996Z,88.78
2018-10-19T13:59:39.744Z,88.49
2018-10-19T14:00:49.565Z,88.59
2018-10-19T14:01:59.903Z,88.29
2018-10-19T14:03:10.143Z,88.59
2018-10-19T14:04:20.263Z,88.29
2018-10-19T14:05:30.846Z,88.29
2018-10-19T14:06:41.948Z,88.39
2018-10-19T14:07:51.775Z,88.29
2018-10-19T14:09:03.391Z,88.78
2018-10-19T14:10:13.863Z,88.97
2018-10-19T14:11:23.946Z,88.39
2018-10-19T14:12:33.766Z,88.87
2018-10-19T14:13:43.846Z,88.78
2018-10-19T14:14:53.703Z,88.2
2018-10-19T14:16:03.577Z,88.97
2018-10-19T14:17:14.144Z,88.59
2018-10-19T14:18:24.288Z,88.83
2018-10-19T14:19:34.442Z,88.73
2018-10-19T14:20:44.263Z,88.83
2018-10-19T14:21:54.577Z,88.54
2018-10-19T14:23:04.548Z,88.54
2018-10-19T14:24:14.637Z,88.54
2018-10-19T14:25:24.757Z,88.35
2018-10-19T14:26:34.908Z,88.73
2018-10-19T14:27:44.961Z,89.12
2018-10-19T14:28:54.804Z,89.12
2018-10-19T14:30:07.043Z,89.17
2018-10-19T14:31:17.126Z,89.07
2018-10-19T14:32:27.212Z,88.98
2018-10-19T14:33:37.199Z,89.07
2018-10-19T14:34:47.928Z,89.47
2018-10-19T14:35:57.768Z,89.27
2018-10-19T14:37:08.160Z,88.89
2018-10-19T14:38:18.016Z,89.17
2018-10-19T14:39:27.891Z,89.47
2018-10-19T14:40:37.995Z,88.98
2018-10-19T14:41:47.825Z,89.27
2018-10-19T14:42:58.053Z,89.17
2018-10-19T14:44:08.140Z,89.23
2018-10-19T14:45:18.742Z,88.93
2018-10-19T14:46:28.835Z,89.42
2018-10-19T14:47:38.686Z,89.32
2018-10-19T14:48:48.856Z,89.32
2018-10-19T14:49:58.653Z,89.51
2018-10-19T14:51:09.020Z,89.32
2018-10-19T14:52:19.498Z,89.23
2018-10-19T14:53:29.650Z,89.81
2018-10-19T14:54:39.591Z,89.71
2018-10-19T14:55:49.786Z,89.57
2018-10-19T14:57:00.098Z,89.18
2018-10-19T14:58:10.564Z,89.67
2018-10-19T14:59:20.782Z,89.57
2018-10-19T15:00:31.034Z,89.28
2018-10-19T15:01:41.148Z,89.57
2018-10-19T15:02:51.361Z,89.47
2018-10-19T15:04:02.401Z,89.57
2018-10-19T15:05:12.343Z,89.53
2018-10-19T15:06:22.921Z,89.43
2018-10-19T15:07:33.020Z,90
2018-10-19T15:08:42.839Z,89.72
2018-10-19T15:09:53.542Z,89.62
2018-10-19T15:11:05.666Z,89.62
2018-10-19T15:12:16.324Z,90.1
2018-10-19T15:13:26.170Z,90.1
2018-10-19T15:14:36.053Z,90
2018-10-19T15:15:46.179Z,89.91
2018-10-19T15:16:55.749Z,90.1
2018-10-19T15:18:06.002Z,89.81
2018-10-19T15:19:16.443Z,90.3
2018-10-19T15:20:26.594Z,90.06
2018-10-19T15:21:36.703Z,90.16
2018-10-19T15:22:46.817Z,89.96
2018-10-19T15:23:56.928Z,90.06
2018-10-19T15:25:07.144Z,89.96
2018-10-19T15:26:17.242Z,89.96
2018-10-19T15:27:27.128Z,89.58
2018-10-19T15:28:37.227Z,89.58
2018-10-19T15:29:47.800Z,89.96
2018-10-19T15:30:58.871Z,90.01
2018-10-19T15:32:08.761Z,89.53
2018-10-19T15:33:18.942Z,90.01
2018-10-19T15:34:29.122Z,90.4
2018-10-19T15:35:39.205Z,90.4
2018-10-19T15:36:49.298Z,90.11
2018-10-19T15:37:59.638Z,90.3
2018-10-19T15:39:10.068Z,90.2